createdAt,value
2018-03-30T00:00:57.244Z,55.20
2018-03-30T00:02:02.139Z,55.20
2018-03-30T00:03:06.991Z,55.20
2018-03-30T00:04:11.615Z,55.20
2018-03-30T00:05:16.744Z,55.40
2018-03-30T00:06:21.974Z,55.40
2018-03-30T00:07:26.806Z,55.40
2018-03-30T00:08:31.656Z,55.40
2018-03-30T00:09:36.556Z,55.60
2018-03-30T00:10:41.676Z,55.70
2018-03-30T00:11:46.810Z,55.70
2018-03-30T00:12:51.882Z,55.80
2018-03-30T00:13:56.962Z,55.90
2018-03-30T00:15:01.747Z,56.00
2018-03-30T00:16:06.785Z,56.10
2018-03-30T00:17:11.950Z,56.20
2018-03-30T00:18:16.981Z,56.20
2018-03-30T00:19:21.775Z,56.30
2018-03-30T00:20:26.820Z,56.30
2018-03-30T00:21:32.158Z,56.30
2018-03-30T00:22:37.121Z,56.20
2018-03-30T00:23:42.188Z,56.40
2018-03-30T00:24:47.410Z,56.40
2018-03-30T00:25:52.363Z,56.40
2018-03-30T00:26:57.271Z,56.30
2018-03-30T00:28:02.427Z,56.30
2018-03-30T00:29:07.408Z,56.40
2018-03-30T00:30:12.506Z,56.40
2018-03-30T00:31:17.558Z,56.40
2018-03-30T00:32:22.701Z,56.40
2018-03-30T00:33:27.776Z,56.50
2018-03-30T00:34:32.882Z,56.50
2018-03-30T00:35:37.902Z,56.50
2018-03-30T00:36:43.005Z,56.50
2018-03-30T00:37:48.044Z,56.50
2018-03-30T00:38:52.990Z,56.50
2018-03-30T00:39:57.873Z,56.50
2018-03-30T00:41:03.050Z,56.40
2018-03-30T00:42:07.972Z,56.40
2018-03-30T00:43:12.978Z,56.60
2018-03-30T00:44:17.910Z,56.50
2018-03-30T00:45:23.000Z,56.40
2018-03-30T00:46:27.727Z,56.40
2018-03-30T00:47:32.788Z,56.40
2018-03-30T00:48:37.716Z,56.40
2018-03-30T00:49:42.578Z,56.40
2018-03-30T00:50:47.240Z,56.40
2018-03-30T00:51:52.147Z,56.40
2018-03-30T00:52:57.249Z,56.40
2018-03-30T00:54:02.183Z,56.40
2018-03-30T00:55:07.058Z,56.40
2018-03-30T00:56:11.888Z,56.40
2018-03-30T00:57:16.927Z,56.40
2018-03-30T00:58:21.751Z,56.50
2018-03-30T00:59:26.556Z,56.40
2018-03-30T01:00:31.624Z,56.40
2018-03-30T01:01:36.639Z,56.50
2018-03-30T01:02:41.378Z,56.40
2018-03-30T01:03:46.377Z,56.40
2018-03-30T01:04:51.220Z,56.40
2018-03-30T01:05:56.393Z,56.50
2018-03-30T01:07:01.279Z,56.50
2018-03-30T01:08:06.330Z,56.50
2018-03-30T01:09:11.210Z,56.50
2018-03-30T01:10:16.266Z,56.50
2018-03-30T01:11:21.190Z,56.50
2018-03-30T01:12:26.194Z,56.60
2018-03-30T01:13:31.220Z,57.00
2018-03-30T01:14:36.110Z,56.60
2018-03-30T01:15:41.231Z,56.60
2018-03-30T01:16:46.345Z,56.50
2018-03-30T01:17:51.458Z,56.60
2018-03-30T01:18:56.326Z,56.50
2018-03-30T01:20:01.263Z,56.60
2018-03-30T01:21:06.325Z,56.60
2018-03-30T01:22:11.378Z,56.60
2018-03-30T01:23:16.258Z,56.70
2018-03-30T01:24:21.290Z,56.60
2018-03-30T01:25:26.461Z,56.60
2018-03-30T01:26:31.610Z,56.50
2018-03-30T01:27:36.570Z,56.50
2018-03-30T01:28:41.571Z,56.60
2018-03-30T01:29:46.573Z,56.70
2018-03-30T01:30:51.435Z,56.50
2018-03-30T01:31:56.371Z,56.50
2018-03-30T01:33:01.450Z,56.60
2018-03-30T01:34:06.249Z,56.60
2018-03-30T01:35:11.063Z,56.60
2018-03-30T01:36:16.112Z,56.50
2018-03-30T01:37:21.110Z,56.50
2018-03-30T01:38:26.063Z,56.50
2018-03-30T01:39:31.227Z,56.50
2018-03-30T01:40:36.308Z,56.50
2018-03-30T01:41:41.200Z,56.50
2018-03-30T01:42:46.277Z,56.50
2018-03-30T01:43:50.994Z,56.50
2018-03-30T01:44:55.861Z,56.50
2018-03-30T01:46:00.814Z,56.50
2018-03-30T01:47:05.738Z,56.60
2018-03-30T01:48:10.753Z,56.50
2018-03-30T01:49:15.727Z,56.50
2018-03-30T01:50:20.680Z,56.50
2018-03-30T01:51:25.787Z,56.50
2018-03-30T01:52:30.847Z,56.40
2018-03-30T01:53:35.854Z,56.40
2018-03-30T01:54:40.878Z,56.40
2018-03-30T01:55:45.896Z,56.40
2018-03-30T01:56:50.914Z,56.30
2018-03-30T01:57:56.019Z,56.40
2018-03-30T01:59:00.874Z,56.30
2018-03-30T02:00:05.933Z,56.40
2018-03-30T02:01:10.790Z,56.40
2018-03-30T02:02:15.938Z,56.40
2018-03-30T02:03:20.860Z,56.40
2018-03-30T02:04:25.775Z,56.40
2018-03-30T02:05:30.772Z,56.40
2018-03-30T02:06:35.754Z,56.40
2018-03-30T02:07:40.692Z,56.30
2018-03-30T02:08:45.607Z,56.30
2018-03-30T02:09:50.652Z,56.30
2018-03-30T02:10:55.609Z,56.40
2018-03-30T02:12:00.625Z,56.30
2018-03-30T02:13:05.784Z,56.30
2018-03-30T02:14:11.799Z,56.30
2018-03-30T02:15:16.926Z,56.30
2018-03-30T02:16:21.766Z,56.20
2018-03-30T02:17:26.638Z,56.30
2018-03-30T02:18:31.665Z,56.30
2018-03-30T02:19:36.650Z,56.30
2018-03-30T02:20:41.794Z,56.30
2018-03-30T02:21:46.837Z,56.20
2018-03-30T02:22:51.969Z,56.30
2018-03-30T02:23:57.097Z,56.20
2018-03-30T02:25:02.271Z,56.30
2018-03-30T02:26:07.164Z,56.20
2018-03-30T02:27:12.160Z,56.20
2018-03-30T02:28:17.168Z,56.20
2018-03-30T02:29:22.163Z,56.30
2018-03-30T02:30:27.164Z,56.20
2018-03-30T02:31:32.111Z,56.20
2018-03-30T02:32:37.129Z,56.20
2018-03-30T02:33:42.280Z,56.20
2018-03-30T02:34:47.244Z,56.20
2018-03-30T02:35:52.099Z,56.20
2018-03-30T02:36:57.104Z,56.20
2018-03-30T02:38:02.258Z,56.20
2018-03-30T02:39:07.094Z,56.20
2018-03-30T02:40:11.957Z,56.20
2018-03-30T02:41:16.981Z,56.20
2018-03-30T02:42:22.032Z,56.20
2018-03-30T02:43:26.977Z,56.20
2018-03-30T02:44:32.074Z,56.10
2018-03-30T02:45:37.052Z,56.10
2018-03-30T02:46:41.913Z,56.10
2018-03-30T02:47:46.958Z,56.20
2018-03-30T02:48:51.941Z,56.10
2018-03-30T02:49:56.854Z,56.20
2018-03-30T02:51:01.921Z,56.10
2018-03-30T02:52:06.865Z,56.10
2018-03-30T02:53:11.967Z,56.10
2018-03-30T02:54:16.725Z,56.10
2018-03-30T02:55:21.662Z,56.10
2018-03-30T02:56:26.719Z,56.00
2018-03-30T02:57:31.673Z,56.00
2018-03-30T02:58:36.721Z,56.00
2018-03-30T02:59:41.632Z,56.00
2018-03-30T03:00:46.396Z,56.00
2018-03-30T03:01:51.300Z,55.90
2018-03-30T03:02:55.959Z,55.90
2018-03-30T03:04:00.856Z,55.90
2018-03-30T03:05:05.590Z,55.80
2018-03-30T03:06:10.414Z,55.90
2018-03-30T03:07:15.064Z,55.80
2018-03-30T03:08:19.852Z,55.90
2018-03-30T03:09:24.673Z,55.80
2018-03-30T03:10:29.496Z,55.80
2018-03-30T03:11:34.605Z,55.80
2018-03-30T03:12:39.616Z,55.80
2018-03-30T03:13:44.449Z,55.90
2018-03-30T03:14:49.540Z,55.80
2018-03-30T03:15:54.374Z,55.80
2018-03-30T03:16:59.436Z,55.80
2018-03-30T03:18:04.167Z,55.80
2018-03-30T03:19:09.047Z,55.80
2018-03-30T03:20:14.208Z,55.60
2018-03-30T03:21:19.376Z,55.70
2018-03-30T03:22:24.151Z,55.60
2018-03-30T03:23:29.158Z,55.70
2018-03-30T03:24:34.347Z,56.40
2018-03-30T03:25:39.346Z,55.70
2018-03-30T03:26:44.308Z,55.80
2018-03-30T03:27:49.306Z,55.70
2018-03-30T03:28:54.302Z,55.70
2018-03-30T03:29:59.280Z,55.70
2018-03-30T03:31:04.501Z,55.60
2018-03-30T03:32:09.548Z,55.70
2018-03-30T03:33:14.413Z,55.60
2018-03-30T03:34:19.293Z,55.60
2018-03-30T03:35:24.235Z,55.50
2018-03-30T03:36:29.192Z,55.60
2018-03-30T03:37:34.206Z,55.60
2018-03-30T03:38:39.206Z,55.60
2018-03-30T03:39:44.157Z,56.20
2018-03-30T03:40:49.275Z,55.50
2018-03-30T03:41:54.169Z,55.50
2018-03-30T03:42:58.950Z,55.50
2018-03-30T03:44:04.126Z,55.50
2018-03-30T03:45:10.199Z,55.50
2018-03-30T03:46:15.461Z,55.60
2018-03-30T03:47:20.508Z,55.60
2018-03-30T03:48:25.383Z,55.60
2018-03-30T03:49:30.148Z,55.60
2018-03-30T03:50:35.128Z,55.50
2018-03-30T03:51:40.108Z,55.50
2018-03-30T03:52:45.073Z,55.50
2018-03-30T03:53:49.832Z,55.50
2018-03-30T03:54:54.847Z,55.40
2018-03-30T03:55:59.622Z,55.40
2018-03-30T03:57:04.635Z,55.40
2018-03-30T03:58:09.716Z,55.40
2018-03-30T03:59:14.843Z,55.50
2018-03-30T04:00:19.835Z,55.50
2018-03-30T04:01:24.565Z,55.50
2018-03-30T04:02:29.683Z,55.40
2018-03-30T04:03:34.601Z,55.40
2018-03-30T04:04:39.695Z,55.40
2018-03-30T04:05:44.829Z,56.00
2018-03-30T04:06:49.942Z,55.40
2018-03-30T04:07:55.176Z,55.40
2018-03-30T04:09:00.209Z,55.40
2018-03-30T04:10:05.099Z,55.40
2018-03-30T04:11:09.917Z,55.30
2018-03-30T04:12:14.863Z,55.30
2018-03-30T04:13:19.843Z,55.30
2018-03-30T04:14:24.991Z,55.30
2018-03-30T04:15:29.995Z,55.30
2018-03-30T04:16:35.121Z,55.30
2018-03-30T04:17:40.164Z,55.20
2018-03-30T04:18:45.189Z,55.20
2018-03-30T04:19:50.162Z,55.20
2018-03-30T04:20:55.339Z,55.20
2018-03-30T04:22:00.503Z,55.20
2018-03-30T04:23:05.675Z,55.20
2018-03-30T04:24:10.756Z,55.20
2018-03-30T04:25:15.933Z,55.20
2018-03-30T04:26:21.050Z,55.10
2018-03-30T04:27:26.165Z,55.10
2018-03-30T04:28:31.056Z,55.10
2018-03-30T04:29:36.145Z,55.10
2018-03-30T04:30:41.053Z,55.10
2018-03-30T04:31:45.988Z,55.00
2018-03-30T04:32:50.890Z,55.10
2018-03-30T04:33:55.736Z,55.10
2018-03-30T04:35:00.652Z,55.00
2018-03-30T04:36:05.702Z,55.00
2018-03-30T04:37:11.016Z,55.60
2018-03-30T04:38:16.025Z,55.00
2018-03-30T04:39:20.809Z,55.00
2018-03-30T04:40:25.948Z,54.90
2018-03-30T04:41:30.868Z,54.90
2018-03-30T04:42:35.792Z,54.90
2018-03-30T04:43:40.837Z,54.90
2018-03-30T04:44:45.663Z,54.80
2018-03-30T04:45:50.653Z,54.80
2018-03-30T04:46:55.601Z,54.90
2018-03-30T04:48:00.626Z,54.90
2018-03-30T04:49:05.549Z,54.90
2018-03-30T04:50:10.498Z,54.80
2018-03-30T04:51:15.460Z,55.40
2018-03-30T04:52:20.431Z,54.80
2018-03-30T04:53:25.429Z,54.90
2018-03-30T04:54:30.241Z,54.80
2018-03-30T04:55:35.070Z,54.70
2018-03-30T04:56:40.481Z,54.70
2018-03-30T04:57:45.617Z,54.70
2018-03-30T04:58:50.482Z,54.60
2018-03-30T04:59:55.262Z,54.70
2018-03-30T05:01:00.212Z,54.60
2018-03-30T05:02:05.360Z,55.20
2018-03-30T05:03:10.196Z,54.60
2018-03-30T05:04:15.302Z,54.60
2018-03-30T05:05:20.324Z,54.60
2018-03-30T05:06:25.050Z,54.50
2018-03-30T05:07:29.846Z,54.60
2018-03-30T05:08:34.908Z,54.50
2018-03-30T05:09:39.973Z,54.40
2018-03-30T05:10:44.866Z,51.80
2018-03-30T05:11:49.886Z,44.10
2018-03-30T05:12:55.049Z,40.60
2018-03-30T05:14:01.905Z,38.90
2018-03-30T05:15:06.937Z,39.50
2018-03-30T05:16:11.640Z,41.40
2018-03-30T05:17:16.430Z,42.80
2018-03-30T05:18:21.624Z,42.20
2018-03-30T05:19:26.615Z,43.60
2018-03-30T05:20:31.533Z,43.30
2018-03-30T05:21:36.543Z,43.60
2018-03-30T05:22:41.621Z,43.90
2018-03-30T05:23:46.782Z,45.00
2018-03-30T05:24:52.249Z,44.90
2018-03-30T05:25:57.919Z,45.20
2018-03-30T05:27:02.761Z,45.70
2018-03-30T05:28:07.667Z,45.80
2018-03-30T05:29:12.695Z,46.10
2018-03-30T05:30:17.958Z,46.30
2018-03-30T05:31:22.957Z,46.40
2018-03-30T05:32:28.038Z,46.40
2018-03-30T05:33:33.201Z,46.60
2018-03-30T05:34:41.671Z,46.50
2018-03-30T05:35:47.513Z,46.60
2018-03-30T05:36:56.956Z,46.50
2018-03-30T05:38:03.143Z,46.70
2018-03-30T05:39:08.114Z,46.60
2018-03-30T05:40:13.347Z,46.60
2018-03-30T05:41:18.570Z,46.80
2018-03-30T05:42:23.500Z,47.00
2018-03-30T05:43:28.568Z,47.10
2018-03-30T05:44:33.737Z,47.30
2018-03-30T05:45:38.758Z,47.30
2018-03-30T05:46:47.012Z,47.40
2018-03-30T05:47:52.971Z,47.40
2018-03-30T05:48:58.030Z,47.60
2018-03-30T05:50:03.021Z,47.30
2018-03-30T05:51:08.027Z,47.00
2018-03-30T05:52:12.935Z,46.90
2018-03-30T05:53:21.025Z,46.90
2018-03-30T05:54:26.413Z,47.10
2018-03-30T05:55:31.514Z,47.30
2018-03-30T05:56:40.400Z,47.50
2018-03-30T05:57:46.055Z,47.70
2018-03-30T05:58:50.922Z,47.70
2018-03-30T05:59:55.902Z,47.90
2018-03-30T06:01:02.346Z,48.10
2018-03-30T06:02:09.996Z,48.20
2018-03-30T06:03:15.401Z,48.30
2018-03-30T06:04:22.635Z,48.40
2018-03-30T06:05:30.084Z,48.40
2018-03-30T06:06:35.353Z,48.50
2018-03-30T06:07:40.230Z,48.60
2018-03-30T06:08:45.284Z,48.60
2018-03-30T06:09:50.339Z,48.60
2018-03-30T06:10:55.360Z,48.70
2018-03-30T06:12:00.616Z,48.60
2018-03-30T06:13:05.941Z,48.60
2018-03-30T06:14:11.072Z,48.80
2018-03-30T06:15:16.013Z,48.80
2018-03-30T06:16:21.091Z,48.80
2018-03-30T06:17:26.122Z,48.90
2018-03-30T06:18:31.209Z,49.00
2018-03-30T06:19:36.681Z,49.00
2018-03-30T06:20:41.764Z,49.10
2018-03-30T06:21:46.750Z,49.20
2018-03-30T06:22:51.593Z,49.30
2018-03-30T06:23:56.648Z,49.50
2018-03-30T06:25:01.965Z,49.50
2018-03-30T06:26:07.283Z,49.60
2018-03-30T06:27:12.161Z,49.80
2018-03-30T06:28:17.265Z,50.00
2018-03-30T06:29:22.218Z,50.10
2018-03-30T06:30:27.262Z,50.20
2018-03-30T06:31:32.332Z,50.30
2018-03-30T06:32:37.384Z,50.30
2018-03-30T06:33:42.498Z,50.50
2018-03-30T06:34:47.683Z,50.60
2018-03-30T06:35:52.824Z,50.70
2018-03-30T06:36:57.857Z,50.70
2018-03-30T06:38:02.896Z,50.90
2018-03-30T06:39:08.046Z,50.90
2018-03-30T06:40:13.091Z,51.00
2018-03-30T06:41:17.952Z,51.80
2018-03-30T06:42:23.131Z,51.30
2018-03-30T06:43:28.099Z,51.30
2018-03-30T06:44:33.124Z,51.50
2018-03-30T06:45:38.267Z,51.50
2018-03-30T06:46:43.452Z,51.60
2018-03-30T06:47:48.426Z,51.50
2018-03-30T06:48:53.414Z,51.30
2018-03-30T06:49:58.258Z,51.40
2018-03-30T06:51:03.202Z,51.40
2018-03-30T06:52:08.057Z,51.50
2018-03-30T06:53:13.176Z,51.40
2018-03-30T06:54:18.319Z,51.40
2018-03-30T06:55:23.264Z,51.50
2018-03-30T06:56:28.181Z,51.60
2018-03-30T06:57:33.373Z,51.80
2018-03-30T06:58:38.670Z,52.00
2018-03-30T06:59:43.786Z,52.30
2018-03-30T07:00:48.971Z,52.40
2018-03-30T07:01:54.415Z,52.60
2018-03-30T07:02:59.633Z,52.70
2018-03-30T07:04:04.674Z,52.80
2018-03-30T07:05:10.076Z,52.90
2018-03-30T07:06:15.766Z,53.00
2018-03-30T07:07:20.961Z,53.00
2018-03-30T07:08:25.965Z,53.10
2018-03-30T07:09:31.094Z,53.10
2018-03-30T07:10:36.305Z,53.10
2018-03-30T07:11:41.519Z,53.30
2018-03-30T07:12:46.618Z,53.40
2018-03-30T07:13:51.873Z,53.60
2018-03-30T07:14:56.767Z,53.70
2018-03-30T07:16:01.859Z,53.90
2018-03-30T07:17:07.018Z,53.90
2018-03-30T07:18:12.250Z,53.90
2018-03-30T07:19:17.456Z,54.00
2018-03-30T07:20:22.589Z,54.10
2018-03-30T07:21:27.580Z,54.10
2018-03-30T07:22:32.908Z,54.40
2018-03-30T07:23:38.908Z,54.30
2018-03-30T07:24:43.746Z,54.40
2018-03-30T07:25:49.033Z,54.40
2018-03-30T07:26:54.316Z,54.50
2018-03-30T07:27:59.667Z,54.50
2018-03-30T07:29:04.826Z,54.20
2018-03-30T07:30:10.119Z,54.20
2018-03-30T07:31:15.160Z,54.30
2018-03-30T07:32:19.877Z,54.40
2018-03-30T07:33:26.491Z,54.40
2018-03-30T07:34:31.509Z,54.50
2018-03-30T07:35:36.636Z,54.60
2018-03-30T07:36:43.346Z,54.50
2018-03-30T07:37:49.833Z,54.60
2018-03-30T07:38:54.867Z,54.70
2018-03-30T07:39:59.881Z,54.80
2018-03-30T07:41:04.998Z,54.80
2018-03-30T07:42:10.409Z,54.80
2018-03-30T07:43:15.854Z,54.70
2018-03-30T07:44:21.088Z,54.60
2018-03-30T07:45:25.871Z,54.50
2018-03-30T07:46:31.002Z,54.30
2018-03-30T07:47:37.448Z,54.30
2018-03-30T07:48:42.561Z,54.30
2018-03-30T07:49:47.466Z,54.30
2018-03-30T07:50:52.527Z,54.30
2018-03-30T07:51:57.625Z,54.20
2018-03-30T07:53:02.578Z,54.20
2018-03-30T07:54:07.667Z,54.10
2018-03-30T07:55:12.834Z,54.10
2018-03-30T07:56:17.751Z,53.90
2018-03-30T07:57:22.921Z,53.80
2018-03-30T07:58:28.182Z,53.80
2018-03-30T07:59:33.161Z,53.60
2018-03-30T08:00:38.451Z,54.20
2018-03-30T08:01:43.753Z,53.40
2018-03-30T08:02:48.806Z,53.30
2018-03-30T08:03:53.869Z,53.10
2018-03-30T08:04:58.711Z,53.00
2018-03-30T08:06:03.830Z,53.00
2018-03-30T08:07:08.905Z,53.10
2018-03-30T08:08:13.986Z,53.00
2018-03-30T08:09:19.134Z,53.00
2018-03-30T08:10:24.289Z,53.00
2018-03-30T08:11:29.169Z,53.00
2018-03-30T08:12:34.454Z,53.80
2018-03-30T08:13:40.558Z,53.50
2018-03-30T08:14:46.201Z,53.60
2018-03-30T08:15:51.140Z,53.70
2018-03-30T08:16:56.463Z,53.50
2018-03-30T08:18:01.523Z,53.60
2018-03-30T08:19:06.804Z,53.80
2018-03-30T08:20:11.675Z,53.70
2018-03-30T08:21:16.873Z,53.70
2018-03-30T08:22:21.988Z,53.80
2018-03-30T08:23:27.248Z,54.10
2018-03-30T08:24:32.297Z,54.30
2018-03-30T08:25:37.613Z,54.20
2018-03-30T08:26:42.629Z,54.00
2018-03-30T08:27:47.766Z,53.90
2018-03-30T08:28:52.907Z,53.80
2018-03-30T08:29:58.490Z,54.20
2018-03-30T08:31:04.118Z,54.10
2018-03-30T08:32:09.620Z,54.10
2018-03-30T08:33:15.072Z,54.10
2018-03-30T08:34:19.958Z,54.10
2018-03-30T08:35:25.379Z,54.10
2018-03-30T08:36:30.608Z,54.30
2018-03-30T08:37:35.577Z,54.20
2018-03-30T08:38:40.477Z,54.10
2018-03-30T08:39:45.656Z,54.10
2018-03-30T08:40:52.714Z,54.20
2018-03-30T08:41:57.822Z,54.10
2018-03-30T08:43:02.743Z,54.00
2018-03-30T08:44:07.462Z,53.90
2018-03-30T08:45:14.229Z,54.10
2018-03-30T08:46:19.246Z,54.00
2018-03-30T08:47:24.429Z,54.10
2018-03-30T08:48:29.644Z,54.20
2018-03-30T08:49:34.746Z,54.30
2018-03-30T08:50:40.407Z,54.40
2018-03-30T08:51:46.619Z,54.30
2018-03-30T08:52:51.949Z,54.30
2018-03-30T08:53:57.146Z,54.20
2018-03-30T08:55:02.139Z,54.20
2018-03-30T08:56:07.250Z,54.30
2018-03-30T08:57:12.516Z,54.30
2018-03-30T08:58:17.530Z,54.20
2018-03-30T08:59:22.655Z,54.40
2018-03-30T09:00:27.951Z,54.50
2018-03-30T09:01:34.604Z,54.50
2018-03-30T09:02:39.562Z,54.60
2018-03-30T09:03:44.592Z,54.90
2018-03-30T09:04:49.572Z,54.90
2018-03-30T09:05:54.668Z,55.00
2018-03-30T09:07:01.618Z,55.80
2018-03-30T09:08:06.614Z,55.20
2018-03-30T09:09:13.532Z,55.20
2018-03-30T09:10:18.347Z,55.40
2018-03-30T09:11:24.113Z,55.30
2018-03-30T09:12:28.858Z,55.40
2018-03-30T09:13:35.063Z,55.40
2018-03-30T09:14:50.900Z,55.40
2018-03-30T09:15:55.943Z,55.30
2018-03-30T09:17:01.408Z,55.20
2018-03-30T09:18:06.869Z,55.10
2018-03-30T09:19:21.963Z,55.10
2018-03-30T09:20:27.947Z,55.10
2018-03-30T09:21:34.333Z,55.10
2018-03-30T09:22:39.122Z,55.00
2018-03-30T09:23:44.195Z,55.10
2018-03-30T09:24:51.459Z,55.10
2018-03-30T09:25:56.703Z,55.20
2018-03-30T09:27:04.636Z,55.10
2018-03-30T09:28:09.737Z,55.20
2018-03-30T09:29:17.475Z,55.00
2018-03-30T09:30:22.549Z,55.00
2018-03-30T09:31:27.589Z,55.10
2018-03-30T09:32:33.143Z,55.20
2018-03-30T09:33:38.376Z,55.30
2018-03-30T09:34:43.474Z,55.70
2018-03-30T09:35:49.448Z,55.80
2018-03-30T09:36:54.872Z,56.00
2018-03-30T09:38:00.186Z,56.10
2018-03-30T09:39:05.307Z,56.50
2018-03-30T09:40:12.888Z,56.80
2018-03-30T09:41:20.021Z,56.60
2018-03-30T09:42:25.032Z,56.70
2018-03-30T09:43:31.941Z,56.70
2018-03-30T09:44:36.936Z,56.70
2018-03-30T09:45:42.365Z,56.60
2018-03-30T09:46:47.177Z,56.60
2018-03-30T09:47:52.264Z,56.70
2018-03-30T09:48:57.344Z,56.50
2018-03-30T09:50:02.119Z,56.50
2018-03-30T09:51:07.269Z,56.40
2018-03-30T09:52:12.159Z,56.40
2018-03-30T09:53:16.978Z,56.30
2018-03-30T09:54:24.814Z,55.90
2018-03-30T09:55:29.589Z,55.80
2018-03-30T09:56:36.657Z,55.60
2018-03-30T09:57:41.607Z,55.40
2018-03-30T09:58:48.964Z,55.10
2018-03-30T09:59:57.322Z,54.90
2018-03-30T10:01:04.442Z,54.80
2018-03-30T10:02:09.397Z,54.60
2018-03-30T10:03:14.311Z,54.30
2018-03-30T10:04:19.285Z,54.20
2018-03-30T10:05:24.336Z,54.00
2018-03-30T10:06:29.441Z,54.00
2018-03-30T10:07:34.381Z,53.80
2018-03-30T10:08:39.391Z,53.80
2018-03-30T10:09:44.280Z,54.00
2018-03-30T10:10:49.408Z,53.90
2018-03-30T10:11:57.429Z,54.10
2018-03-30T10:13:03.452Z,54.20
2018-03-30T10:14:09.459Z,54.20
2018-03-30T10:15:15.152Z,54.20
2018-03-30T10:20:35.405Z,53.70
2018-03-30T10:21:40.496Z,53.90
2018-03-30T10:22:45.323Z,54.00
2018-03-30T10:23:50.194Z,54.00
2018-03-30T10:24:55.206Z,53.70
2018-03-30T10:26:00.287Z,53.40
2018-03-30T10:27:05.139Z,53.60
2018-03-30T10:28:11.303Z,53.20
2018-03-30T10:29:18.371Z,53.10
2018-03-30T10:30:25.312Z,53.10
2018-03-30T10:31:32.369Z,53.00
2018-03-30T10:32:39.288Z,52.80
2018-03-30T10:33:44.171Z,52.70
2018-03-30T10:34:51.192Z,52.90
2018-03-30T10:35:56.000Z,52.70
2018-03-30T10:38:33.781Z,52.30
2018-03-30T10:39:40.240Z,52.20
2018-03-30T10:40:45.133Z,52.20
2018-03-30T10:41:52.234Z,52.40
2018-03-30T10:42:59.190Z,52.10
2018-03-30T10:44:04.054Z,52.10
2018-03-30T10:46:40.451Z,52.00
2018-03-30T10:47:47.520Z,52.00
2018-03-30T10:48:54.405Z,51.70
2018-03-30T10:49:59.356Z,51.90
2018-03-30T10:51:05.674Z,51.80
2018-03-30T10:52:12.156Z,51.90
2018-03-30T10:53:19.269Z,51.90
2018-03-30T10:54:26.199Z,52.30
2018-03-30T10:55:30.998Z,51.70
2018-03-30T10:56:35.911Z,49.90
2018-03-30T10:57:42.923Z,49.20
2018-03-30T10:58:50.104Z,49.40
2018-03-30T10:59:55.049Z,49.60
2018-03-30T11:01:00.020Z,49.70
2018-03-30T11:02:04.772Z,49.80
2018-03-30T11:03:09.716Z,49.80
2018-03-30T11:04:15.792Z,49.40
2018-03-30T11:05:21.395Z,48.90
2018-03-30T11:06:26.707Z,48.30
2018-03-30T11:07:31.637Z,48.70
2018-03-30T11:08:36.714Z,48.70
2018-03-30T11:09:41.616Z,49.20
2018-03-30T11:10:46.708Z,49.40
2018-03-30T11:11:51.658Z,49.70
2018-03-30T11:12:56.644Z,49.90
2018-03-30T11:14:01.633Z,50.00
2018-03-30T11:15:06.448Z,50.10
2018-03-30T11:16:11.236Z,50.10
2018-03-30T11:17:16.263Z,50.30
2018-03-30T11:18:20.980Z,50.40
2018-03-30T11:19:25.966Z,50.50
2018-03-30T11:20:31.061Z,50.70
2018-03-30T11:21:36.305Z,50.80
2018-03-30T11:22:41.242Z,50.80
2018-03-30T11:23:46.266Z,50.80
2018-03-30T11:24:51.188Z,50.80
2018-03-30T11:25:56.320Z,50.80
2018-03-30T11:27:01.703Z,50.90
2018-03-30T11:28:10.386Z,50.90
2018-03-30T11:29:15.896Z,50.90
2018-03-30T11:30:20.798Z,51.00
2018-03-30T11:31:26.463Z,51.00
2018-03-30T11:32:31.362Z,51.10
2018-03-30T11:33:36.341Z,51.30
2018-03-30T11:34:41.307Z,51.30
2018-03-30T11:35:46.278Z,51.40
2018-03-30T11:36:51.124Z,51.30
2018-03-30T11:37:56.122Z,51.40
2018-03-30T11:39:01.472Z,51.40
2018-03-30T11:40:06.519Z,52.10
2018-03-30T11:41:11.715Z,51.50
2018-03-30T11:42:16.628Z,51.60
2018-03-30T11:43:21.567Z,51.70
2018-03-30T11:44:26.649Z,51.80
2018-03-30T11:45:31.727Z,51.70
2018-03-30T11:46:36.886Z,51.90
2018-03-30T11:47:41.999Z,52.00
2018-03-30T11:48:47.213Z,52.00
2018-03-30T11:49:55.190Z,52.00
2018-03-30T11:51:00.261Z,52.00
2018-03-30T11:52:07.536Z,51.90
2018-03-30T11:53:14.238Z,52.00
2018-03-30T11:54:19.518Z,52.10
2018-03-30T11:55:24.627Z,52.20
2018-03-30T11:56:29.837Z,52.30
2018-03-30T11:57:34.835Z,52.30
2018-03-30T11:58:40.013Z,52.50
2018-03-30T11:59:45.083Z,52.50
2018-03-30T12:00:50.468Z,52.60
2018-03-30T12:01:57.019Z,52.50
2018-03-30T12:03:02.306Z,52.50
2018-03-30T12:04:08.219Z,52.60
2018-03-30T12:05:13.603Z,52.60
2018-03-30T12:06:18.732Z,52.60
2018-03-30T12:07:24.246Z,52.60
2018-03-30T12:08:31.891Z,52.70
2018-03-30T12:09:38.361Z,52.90
2018-03-30T12:10:43.580Z,53.00
2018-03-30T12:11:49.963Z,53.00
2018-03-30T12:12:55.494Z,53.10
2018-03-30T12:14:00.435Z,53.10
2018-03-30T12:15:05.560Z,53.30
2018-03-30T12:16:10.643Z,53.40
2018-03-30T12:17:15.568Z,53.40
2018-03-30T12:18:20.604Z,53.40
2018-03-30T12:19:25.653Z,53.40
2018-03-30T12:20:30.845Z,53.50
2018-03-30T12:21:35.809Z,53.50
2018-03-30T12:22:40.924Z,53.40
2018-03-30T12:23:46.459Z,53.50
2018-03-30T12:24:51.557Z,53.50
2018-03-30T12:25:56.485Z,53.50
2018-03-30T12:27:01.469Z,53.70
2018-03-30T12:28:06.330Z,53.50
2018-03-30T12:29:11.417Z,53.70
2018-03-30T12:30:16.406Z,53.70
2018-03-30T12:31:21.329Z,53.60
2018-03-30T12:32:26.253Z,53.60
2018-03-30T12:33:31.115Z,53.70
2018-03-30T12:34:36.085Z,53.70
2018-03-30T12:35:41.020Z,53.70
2018-03-30T12:36:46.068Z,53.60
2018-03-30T12:37:51.459Z,53.70
2018-03-30T12:38:56.484Z,53.70
2018-03-30T12:40:01.392Z,53.70
2018-03-30T12:41:06.299Z,53.70
2018-03-30T12:42:11.516Z,53.70
2018-03-30T12:43:16.534Z,53.70
2018-03-30T12:44:21.650Z,53.70
2018-03-30T12:45:26.720Z,53.70
2018-03-30T12:46:31.665Z,53.70
2018-03-30T12:47:36.545Z,53.80
2018-03-30T12:48:41.823Z,53.80
2018-03-30T12:49:46.970Z,53.80
2018-03-30T12:50:52.077Z,53.80
2018-03-30T12:51:57.262Z,53.40
2018-03-30T12:53:02.527Z,53.30
2018-03-30T12:54:07.604Z,53.50
2018-03-30T12:55:13.035Z,53.50
2018-03-30T12:56:18.128Z,53.60
2018-03-30T12:57:23.343Z,53.60
2018-03-30T12:58:28.265Z,53.70
2018-03-30T12:59:33.300Z,53.80
2018-03-30T13:00:38.450Z,53.80
2018-03-30T13:01:43.314Z,53.90
2018-03-30T13:02:48.251Z,53.90
2018-03-30T13:03:53.246Z,54.00
2018-03-30T13:04:58.595Z,54.00
2018-03-30T13:06:03.660Z,54.00
2018-03-30T13:07:08.762Z,54.10
2018-03-30T13:08:13.805Z,54.10
2018-03-30T13:09:18.846Z,54.10
2018-03-30T13:10:23.736Z,54.10
2018-03-30T13:11:28.756Z,54.10
2018-03-30T13:12:33.588Z,54.20
2018-03-30T13:13:38.700Z,54.30
2018-03-30T13:14:43.596Z,54.20
2018-03-30T13:15:48.652Z,54.40
2018-03-30T13:16:53.710Z,54.40
2018-03-30T13:17:58.732Z,54.50
2018-03-30T13:19:03.729Z,54.40
2018-03-30T13:20:08.723Z,54.50
2018-03-30T13:21:13.738Z,54.40
2018-03-30T13:22:18.560Z,54.50
2018-03-30T13:23:23.332Z,54.50
2018-03-30T13:24:28.131Z,54.60
2018-03-30T13:25:33.037Z,54.60
2018-03-30T13:26:37.964Z,54.60
2018-03-30T13:27:42.856Z,54.70
2018-03-30T13:28:47.848Z,54.60
2018-03-30T13:29:53.034Z,54.70
2018-03-30T13:30:57.944Z,54.60
2018-03-30T13:32:02.970Z,54.70
2018-03-30T13:33:07.890Z,54.60
2018-03-30T13:34:12.695Z,54.70
2018-03-30T13:35:17.644Z,54.60
2018-03-30T13:36:22.723Z,54.60
2018-03-30T13:37:27.842Z,54.70
2018-03-30T13:38:32.751Z,54.70
2018-03-30T13:39:37.728Z,54.80
2018-03-30T13:40:42.611Z,54.80
2018-03-30T13:41:47.970Z,54.80
2018-03-30T13:42:52.930Z,54.80
2018-03-30T13:43:57.986Z,54.80
2018-03-30T13:45:06.043Z,54.70
2018-03-30T13:46:11.030Z,54.80
2018-03-30T13:47:16.150Z,54.70
2018-03-30T13:48:20.910Z,54.70
2018-03-30T13:49:25.779Z,54.80
2018-03-30T13:50:30.941Z,54.80
2018-03-30T13:51:36.056Z,54.90
2018-03-30T13:52:41.163Z,54.90
2018-03-30T13:53:46.011Z,54.80
2018-03-30T13:54:50.957Z,54.80
2018-03-30T13:55:55.905Z,54.70
2018-03-30T13:57:00.889Z,54.70
2018-03-30T13:58:05.758Z,54.70
2018-03-30T13:59:10.780Z,54.70
2018-03-30T14:00:16.695Z,54.70
2018-03-30T14:01:21.584Z,54.80
2018-03-30T14:02:26.699Z,54.70
2018-03-30T14:03:31.736Z,54.80
2018-03-30T14:04:36.718Z,54.80
2018-03-30T14:05:41.827Z,54.80
2018-03-30T14:06:46.809Z,54.90
2018-03-30T14:07:51.708Z,54.70